Cincinnati, OH

1:07 AM EDT on August 04, 2015 (GMT -0400)
Newport Aquarium | | Change Station
CLOSE
Current Station
Personal Weather Station
Location: Newport, KY
Elevation: 499 ft
Nearby Weather Stations

Elev 499 ft 39.09 °N, 84.50 °W | Updated 3 minutes ago

Overcast
Overcast
72.1 °F
Feels Like 72 °F
N
0.0
Wind Variable Wind from East
Gusts 8.0 mph

Today
High -- | Low -- °F
--% Chance of Precip.
Yesterday
High -- | Low -- °F
Precip. -- in
6:40 AM 8:46 PM
Waning Gibbous, 81% visible
Pressure 29.92 in
Visibility 6.0 miles
Clouds Scattered Clouds 5000 ft
Mostly Cloudy 7000 ft
Heat Index 72 °F
Dew Point 66 °F
Humidity 82%
Rainfall 0.00 in
Snow Depth Not available.
UV 0 out of 12
Pollen 7.20 out of 12
Air Quality Not available.
Flu Activity Not available.
METAR KLUK 040453Z AUTO 00000KT 6SM BR SCT050 BKN070 19/19 A2993 RMK AO2 SLP132 T01940194 403000172 $

More Conditions Fewer Conditions

Pressure 29.92 in
Visibility 6.0 miles
Clouds Scattered Clouds 5000 ft
Mostly Cloudy 7000 ft
Heat Index 72 °F
Dew Point 66 °F
Humidity 82%
Rainfall 0.00 in
Snow Depth Not available.
UV 0 out of 12
Pollen 7.20 out of 12
Air Quality Not available.
Flu Activity Not available.
METAR KLUK 040453Z AUTO 00000KT 6SM BR SCT050 BKN070 19/19 A2993 RMK AO2 SLP132 T01940194 403000172 $

More Conditions Fewer Conditions

10-Day Weather Forecast

×

Almanac

Astronomy

Aug. 04, 2015 Rise Set
Actual Time
Civil Twilight
Nautical Twilight
Astronomical Twilight
Moon
Length of Visible Light
Length of Day
Tomorrow will be .
, % of the Moon is Illuminated

Today's Extremes

State Highs State Lows

Community

WunderPhotos

Upload Photos

1,843,866 photos uploaded!

WunderBlogs® & News

Nearby

Air Quality

  Air Quality AQ Index Pollutant
Not available.

Snow Depth

Station Depth Elevation

Earthquake Activity

City Distance Mag. Time & Date
Minimum magnitude displayed is 2.5.

Coastal Water Temperatures

Place Temperature

Stations

Nearby Weather Stations

Station Location Temp. Windchill Dew Point Humidity Wind Precip. Elev Updated Type